Boars Hill, United Kingdom
Current Conditions -  °F | °C
As of 6:50 PM on Monday 20 Oct 2014 (Local Time) from EGTK Reporting Station
Scattered Clouds Scattered Clouds  
Wind Chill: 55°   Ceiling: Unl
Heat Index: 55°   Visibility: 6mi
Dew Point: 52°   Wind: 9mph
Humidity: 88%   Direction: 230°SW
Pressure: 29.91"   Gusts: NA
Location:  51.72°N, 1.29°W
Report Text: EGTK 201750Z 23008KT 9999 SCT021 13/11 Q1013
Loading
Personal Weather Stations






























Interactive Weather Map
Tropical Storm Tracking
New forecast layout! Learn more

10-Day Weather Forecast

Advertisements
Track Severe Weather on mobile